createdAt,value
2023-04-18T00:00:38.651Z,39.80
2023-04-18T00:03:17.483Z,46.40
2023-04-18T00:05:53.656Z,38.30
2023-04-18T00:08:28.670Z,46.53
2023-04-18T00:11:03.153Z,54.80
2023-04-18T00:13:41.351Z,48.40
2023-04-18T00:16:16.011Z,48.40
2023-04-18T00:18:49.879Z,46.97
2023-04-18T00:21:25.319Z,47.43
2023-04-18T00:24:02.575Z,50.47
2023-04-18T00:26:39.241Z,50.77
2023-04-18T00:29:21.834Z,48.10
2023-04-18T00:32:03.821Z,48.90
2023-04-18T00:34:46.490Z,43.47
2023-04-18T00:37:25.003Z,48.67
2023-04-18T00:39:58.734Z,43.27
2023-04-18T00:42:33.747Z,45.27
2023-04-18T00:45:09.952Z,42.63
2023-04-18T00:47:50.550Z,40.23
2023-04-18T00:50:28.444Z,44.77
2023-04-18T00:53:02.789Z,44.67
2023-04-18T00:55:54.970Z,45.23
2023-04-18T00:58:33.350Z,41.80
2023-04-18T01:01:10.010Z,42.40
2023-04-18T01:03:44.689Z,52.53
2023-04-18T01:06:27.955Z,47.57
2023-04-18T01:09:07.383Z,49.30
2023-04-18T01:11:55.499Z,44.50
2023-04-18T01:14:30.438Z,47.23
2023-04-18T01:17:46.352Z,46.50
2023-04-18T01:20:25.299Z,45.60
2023-04-18T01:23:00.256Z,46.10
2023-04-18T01:25:36.367Z,48.93
2023-04-18T01:28:10.834Z,51.57
2023-04-18T01:30:45.038Z,47.73
2023-04-18T01:33:18.880Z,48.57
2023-04-18T01:35:54.304Z,54.53
2023-04-18T01:38:28.501Z,49.03
2023-04-18T01:41:05.042Z,49.23
2023-04-18T01:43:39.598Z,51.10
2023-04-18T01:46:15.567Z,57.10
2023-04-18T01:48:50.220Z,46.23
2023-04-18T01:51:27.275Z,50.83
2023-04-18T01:54:01.424Z,45.00
2023-04-18T01:56:42.084Z,41.40
2023-04-18T01:59:19.547Z,45.83
2023-04-18T02:01:53.611Z,47.20
2023-04-18T02:04:31.035Z,43.00
2023-04-18T02:07:09.501Z,42.97
2023-04-18T02:09:45.406Z,41.10
2023-04-18T02:12:26.056Z,41.73
2023-04-18T02:15:00.508Z,37.80
2023-04-18T02:17:38.421Z,35.50
2023-04-18T02:20:14.936Z,37.30
2023-04-18T02:22:57.593Z,39.43
2023-04-18T02:25:32.763Z,36.77
2023-04-18T02:28:12.443Z,34.80
2023-04-18T02:30:47.127Z,43.20
2023-04-18T02:33:21.329Z,36.10
2023-04-18T02:35:58.381Z,43.80
2023-04-18T02:38:34.180Z,38.67
2023-04-18T02:41:11.101Z,44.73
2023-04-18T02:43:53.614Z,41.30
2023-04-18T02:46:31.035Z,41.53
2023-04-18T02:49:12.067Z,37.00
2023-04-18T02:51:48.782Z,36.00
2023-04-18T02:54:26.881Z,34.33
2023-04-18T02:57:08.350Z,36.30
2023-04-18T03:00:06.749Z,35.47
2023-04-18T03:03:02.863Z,29.97
2023-04-18T03:06:01.850Z,26.53
2023-04-18T03:08:54.082Z,28.37
2023-04-18T03:11:33.934Z,25.63
2023-04-18T03:14:08.448Z,22.87
2023-04-18T03:16:56.012Z,25.67
2023-04-18T03:19:35.702Z,21.90
2023-04-18T03:22:15.687Z,36.90
2023-04-18T03:25:02.230Z,21.88
2023-04-18T03:27:52.702Z,23.17
2023-04-18T03:30:31.248Z,20.60
2023-04-18T03:33:14.785Z,18.63
2023-04-18T03:35:50.569Z,23.63
2023-04-18T03:38:34.263Z,19.48
2023-04-18T03:41:25.933Z,16.60
2023-04-18T03:44:02.656Z,21.05
2023-04-18T03:46:41.047Z,22.63
2023-04-18T03:49:21.316Z,18.83
2023-04-18T03:51:56.428Z,25.73
2023-04-18T03:54:34.132Z,20.27
2023-04-18T03:57:19.090Z,25.73
2023-04-18T04:00:08.572Z,27.20
2023-04-18T04:03:00.498Z,31.42
2023-04-18T04:05:43.510Z,25.27
2023-04-18T04:08:20.948Z,28.75
2023-04-18T04:10:59.268Z,31.83
2023-04-18T04:13:38.747Z,34.97
2023-04-18T04:16:13.995Z,41.22
2023-04-18T04:18:51.502Z,32.03
2023-04-18T04:21:35.218Z,34.10
2023-04-18T04:24:12.190Z,26.92
2023-04-18T04:26:50.993Z,28.70
2023-04-18T04:29:35.756Z,34.90
2023-04-18T04:32:13.873Z,26.48
2023-04-18T04:34:54.545Z,24.27
2023-04-18T04:37:39.437Z,27.85
2023-04-18T04:40:24.648Z,28.45
2023-04-18T04:43:22.415Z,24.27
2023-04-18T04:45:59.746Z,22.58
2023-04-18T04:48:49.189Z,21.50
2023-04-18T04:51:29.874Z,23.17
2023-04-18T04:54:11.428Z,18.48
2023-04-18T04:56:49.359Z,18.77
2023-04-18T04:59:30.911Z,19.58
2023-04-18T05:02:13.017Z,23.77
2023-04-18T05:04:51.702Z,23.88
2023-04-18T05:07:29.796Z,21.67
2023-04-18T05:10:05.805Z,15.70
2023-04-18T05:12:39.307Z,19.52
2023-04-18T05:15:14.245Z,19.25
2023-04-18T05:17:50.111Z,17.17
2023-04-18T05:20:24.354Z,18.10
2023-04-18T05:22:58.527Z,30.63
2023-04-18T05:25:41.046Z,28.60
2023-04-18T05:28:15.272Z,23.33
2023-04-18T05:30:50.221Z,32.05
2023-04-18T05:33:26.929Z,31.10
2023-04-18T05:36:04.079Z,27.85
2023-04-18T05:38:38.919Z,26.88
2023-04-18T05:41:19.971Z,25.02
2023-04-18T05:44:04.843Z,19.75
2023-04-18T05:46:40.082Z,19.63
2023-04-18T05:49:15.512Z,25.27
2023-04-18T05:51:58.655Z,23.70
2023-04-18T05:54:33.978Z,29.95
2023-04-18T05:57:13.608Z,31.83
2023-04-18T05:59:50.537Z,33.15
2023-04-18T06:02:26.827Z,35.58
2023-04-18T06:05:02.420Z,30.05
2023-04-18T06:07:37.145Z,33.78
2023-04-18T06:10:15.572Z,25.98
2023-04-18T06:12:51.675Z,25.00
2023-04-18T06:15:27.464Z,26.10
2023-04-18T06:18:04.903Z,27.85
2023-04-18T06:20:43.425Z,26.88
2023-04-18T06:23:19.241Z,35.55
2023-04-18T06:25:59.747Z,29.83
2023-04-18T06:28:35.501Z,29.00
2023-04-18T06:31:10.702Z,30.17
2023-04-18T06:33:45.438Z,24.58
2023-04-18T06:36:23.225Z,25.13
2023-04-18T06:38:59.083Z,28.33
2023-04-18T06:41:45.266Z,25.98
2023-04-18T06:44:34.421Z,22.38
2023-04-18T06:47:08.491Z,23.45
2023-04-18T06:49:42.540Z,22.20
2023-04-18T06:52:20.458Z,22.33
2023-04-18T06:54:54.689Z,22.65
2023-04-18T06:57:29.139Z,23.20
2023-04-18T07:00:13.040Z,22.23
2023-04-18T07:02:52.644Z,21.73
2023-04-18T07:05:28.833Z,26.95
2023-04-18T07:08:24.007Z,26.05
2023-04-18T07:11:09.650Z,23.75
2023-04-18T07:13:44.271Z,25.80
2023-04-18T07:19:13.096Z,28.85
2023-04-18T07:21:48.009Z,26.00
2023-04-18T07:24:21.927Z,29.58
2023-04-18T07:26:55.287Z,30.30
2023-04-18T07:29:29.411Z,30.25
2023-04-18T07:32:02.742Z,29.50
2023-04-18T07:34:38.995Z,30.63
2023-04-18T07:37:14.666Z,29.75
2023-04-18T07:39:48.013Z,30.38
2023-04-18T07:42:21.102Z,32.03
2023-04-18T07:44:54.280Z,32.05
2023-04-18T07:47:29.410Z,34.17
2023-04-18T07:50:11.631Z,30.25
2023-04-18T07:52:49.557Z,36.05
2023-04-18T07:55:23.101Z,30.15
2023-04-18T07:57:57.255Z,28.25
2023-04-18T08:00:34.565Z,25.77
2023-04-18T08:03:10.020Z,26.65
2023-04-18T08:05:46.558Z,28.13
2023-04-18T08:08:20.864Z,26.67
2023-04-18T08:10:54.749Z,28.52
2023-04-18T08:13:32.021Z,29.83
2023-04-18T08:16:06.284Z,29.25
2023-04-18T08:18:41.346Z,31.17
2023-04-18T08:21:16.606Z,27.95
2023-04-18T08:23:49.747Z,27.30
2023-04-18T08:26:23.631Z,27.63
2023-04-18T08:28:58.237Z,24.35
2023-04-18T08:31:32.787Z,29.75
2023-04-18T08:34:06.374Z,23.67
2023-04-18T08:36:41.825Z,24.70
2023-04-18T08:39:15.945Z,27.00
2023-04-18T08:41:57.391Z,28.08
2023-04-18T08:44:32.169Z,26.10
2023-04-18T08:47:06.576Z,27.02
2023-04-18T08:49:39.879Z,27.10
2023-04-18T08:52:18.378Z,27.23
2023-04-18T08:54:51.881Z,29.38
2023-04-18T08:57:28.350Z,34.85
2023-04-18T09:00:02.220Z,33.85
2023-04-18T09:02:43.786Z,30.67
2023-04-18T09:05:20.201Z,30.27
2023-04-18T09:07:57.643Z,31.90
2023-04-18T09:10:32.731Z,30.10
2023-04-18T09:13:07.406Z,32.13
2023-04-18T09:15:40.692Z,34.15
2023-04-18T09:18:15.938Z,31.73
2023-04-18T09:20:51.480Z,32.80
2023-04-18T09:23:30.185Z,32.55
2023-04-18T09:26:03.268Z,37.58
2023-04-18T09:28:38.677Z,34.38
2023-04-18T09:31:16.593Z,26.05
2023-04-18T09:33:58.364Z,29.30
2023-04-18T09:36:32.803Z,35.80
2023-04-18T09:39:08.845Z,27.15
2023-04-18T09:41:42.723Z,29.63
2023-04-18T09:44:17.148Z,30.17
2023-04-18T09:46:51.357Z,31.80
2023-04-18T09:49:25.404Z,34.40
2023-04-18T09:52:00.691Z,33.70
2023-04-18T09:54:41.917Z,24.05
2023-04-18T09:57:17.379Z,33.05
2023-04-18T09:59:56.602Z,34.53
2023-04-18T10:02:31.872Z,37.17
2023-04-18T10:05:06.851Z,35.85
2023-04-18T10:07:40.894Z,37.42
2023-04-18T10:10:16.516Z,25.15
2023-04-18T10:12:52.272Z,29.83
2023-04-18T10:15:27.808Z,34.65
2023-04-18T10:18:05.632Z,34.33
2023-04-18T10:20:39.526Z,34.80
2023-04-18T10:23:40.666Z,35.90
2023-04-18T10:26:16.475Z,34.85
2023-04-18T10:28:59.988Z,31.30
2023-04-18T10:31:43.201Z,32.70
2023-04-18T10:34:21.165Z,37.55
2023-04-18T10:37:09.150Z,30.60
2023-04-18T10:40:01.712Z,35.97
2023-04-18T10:43:04.007Z,32.40
2023-04-18T10:45:37.752Z,36.92
2023-04-18T10:48:31.738Z,43.42
2023-04-18T10:51:19.733Z,36.40
2023-04-18T10:53:56.198Z,35.15
2023-04-18T10:56:30.215Z,33.88
2023-04-18T10:59:06.899Z,34.83
2023-04-18T11:01:46.426Z,34.13
2023-04-18T11:04:20.828Z,32.63
2023-04-18T11:06:59.349Z,33.97
2023-04-18T11:09:33.321Z,34.97
2023-04-18T11:12:11.272Z,39.47
2023-04-18T11:14:51.759Z,35.10
2023-04-18T11:17:26.217Z,33.70
2023-04-18T11:20:10.386Z,34.97
2023-04-18T11:22:51.402Z,41.83
2023-04-18T11:25:29.104Z,37.00
2023-04-18T11:28:04.928Z,41.40
2023-04-18T11:30:48.082Z,40.40
2023-04-18T11:33:21.662Z,38.47
2023-04-18T11:36:00.415Z,36.40
2023-04-18T11:38:34.949Z,35.30
2023-04-18T11:41:08.146Z,39.93
2023-04-18T11:43:41.467Z,41.13
2023-04-18T11:46:17.479Z,38.87
2023-04-18T11:48:51.663Z,41.80
2023-04-18T11:51:40.002Z,45.23
2023-04-18T11:54:44.018Z,39.40
2023-04-18T11:57:27.294Z,40.03
2023-04-18T12:00:04.162Z,49.00
2023-04-18T12:02:49.574Z,41.40
2023-04-18T12:05:35.294Z,52.83
2023-04-18T12:08:13.135Z,52.20
2023-04-18T12:10:51.882Z,42.87
2023-04-18T12:13:30.465Z,45.27
2023-04-18T12:16:07.473Z,37.20
2023-04-18T12:18:47.048Z,44.77
2023-04-18T12:21:21.305Z,41.60
2023-04-18T12:24:04.268Z,41.27
2023-04-18T12:26:38.211Z,41.50
2023-04-18T12:29:11.291Z,52.20
2023-04-18T12:31:44.374Z,41.53
2023-04-18T12:34:19.172Z,48.27
2023-04-18T12:36:53.047Z,40.90
2023-04-18T12:39:28.770Z,55.57
2023-04-18T12:42:01.801Z,47.47
2023-04-18T12:44:36.512Z,57.27
2023-04-18T12:47:11.434Z,47.07
2023-04-18T12:49:46.992Z,46.77
2023-04-18T12:52:20.430Z,39.63
2023-04-18T12:54:56.305Z,40.40
2023-04-18T12:57:31.746Z,48.43
2023-04-18T13:00:12.046Z,36.60
2023-04-18T13:02:47.251Z,36.83
2023-04-18T13:05:23.520Z,37.43
2023-04-18T13:08:08.471Z,34.87
2023-04-18T13:10:47.006Z,39.90
2023-04-18T13:13:19.947Z,39.50
2023-04-18T13:15:54.309Z,39.03
2023-04-18T13:18:28.014Z,36.50
2023-04-18T13:21:03.323Z,37.03
2023-04-18T13:23:36.800Z,38.57
2023-04-18T13:26:10.028Z,32.93
2023-04-18T13:31:33.026Z,32.20
2023-04-18T13:34:06.702Z,35.57
2023-04-18T13:36:42.377Z,35.67
2023-04-18T13:39:17.045Z,35.00
2023-04-18T13:41:50.668Z,44.27
2023-04-18T13:44:26.133Z,37.07
2023-04-18T13:47:00.289Z,36.63
2023-04-18T13:49:34.834Z,36.13
2023-04-18T13:52:10.870Z,40.53
2023-04-18T13:54:48.976Z,41.73
2023-04-18T13:57:22.227Z,32.87
2023-04-18T13:59:55.599Z,35.47
2023-04-18T14:02:34.160Z,42.10
2023-04-18T14:05:08.408Z,35.10
2023-04-18T14:07:44.471Z,32.53
2023-04-18T14:10:21.601Z,36.67
2023-04-18T14:12:55.008Z,39.40
2023-04-18T14:15:33.038Z,38.23
2023-04-18T14:18:06.859Z,36.47
2023-04-18T14:20:40.193Z,37.63
2023-04-18T14:23:15.186Z,34.77
2023-04-18T14:25:48.352Z,38.07
2023-04-18T14:28:23.224Z,41.43
2023-04-18T14:30:56.612Z,37.10
2023-04-18T14:33:30.076Z,38.23
2023-04-18T14:36:05.714Z,37.90
2023-04-18T14:38:40.990Z,44.30
2023-04-18T14:41:14.666Z,41.50
2023-04-18T14:43:49.688Z,41.43
2023-04-18T14:46:24.590Z,44.80
2023-04-18T14:49:02.536Z,37.70
2023-04-18T14:51:36.003Z,38.60
2023-04-18T14:54:11.073Z,44.90
2023-04-18T14:56:44.783Z,45.60
2023-04-18T14:59:18.446Z,43.53
2023-04-18T15:01:53.902Z,40.27
2023-04-18T15:04:27.151Z,41.57
2023-04-18T15:07:02.480Z,42.57
2023-04-18T15:09:40.887Z,40.77
2023-04-18T15:12:14.376Z,43.90
2023-04-18T15:14:47.798Z,43.77
2023-04-18T15:17:20.839Z,39.10
2023-04-18T15:19:54.073Z,43.83
2023-04-18T15:22:26.996Z,41.47
2023-04-18T15:25:01.631Z,43.23
2023-04-18T15:27:35.039Z,46.63
2023-04-18T15:30:12.531Z,42.50
2023-04-18T15:32:45.446Z,49.23
2023-04-18T15:35:26.585Z,49.47
2023-04-18T15:38:04.619Z,52.20
2023-04-18T15:40:40.147Z,50.30
2023-04-18T15:43:14.973Z,46.43
2023-04-18T15:45:49.126Z,53.00
2023-04-18T15:48:25.863Z,53.60
2023-04-18T15:50:59.530Z,49.80
2023-04-18T15:53:32.490Z,50.90
2023-04-18T15:56:07.843Z,48.00
2023-04-18T15:58:41.281Z,52.03
2023-04-18T16:01:20.578Z,58.83
2023-04-18T16:03:58.980Z,53.83
2023-04-18T16:06:33.002Z,53.10
2023-04-18T16:09:07.871Z,54.23
2023-04-18T16:11:42.836Z,56.70
2023-04-18T16:14:16.167Z,55.43
2023-04-18T16:16:49.386Z,60.60
2023-04-18T16:19:22.219Z,57.57
2023-04-18T16:21:55.154Z,57.17
2023-04-18T16:24:29.120Z,62.60
2023-04-18T16:27:04.252Z,54.97
2023-04-18T16:29:37.174Z,65.93
2023-04-18T16:32:10.269Z,63.60
2023-04-18T16:34:44.071Z,58.77
2023-04-18T16:37:17.974Z,59.33
2023-04-18T16:39:51.835Z,68.03
2023-04-18T16:42:27.538Z,65.80
2023-04-18T16:45:00.465Z,71.87
2023-04-18T16:47:34.383Z,63.73
2023-04-18T16:50:07.659Z,94.80
2023-04-18T16:52:40.860Z,71.43
2023-04-18T16:55:14.588Z,69.30
2023-04-18T16:57:49.840Z,69.93
2023-04-18T17:00:23.834Z,78.03
2023-04-18T17:02:57.638Z,69.60
2023-04-18T17:05:31.004Z,61.63
2023-04-18T17:08:04.910Z,60.93
2023-04-18T17:10:38.600Z,65.67
2023-04-18T17:13:14.271Z,63.83
2023-04-18T17:15:47.950Z,69.00
2023-04-18T17:18:21.289Z,67.77
2023-04-18T17:20:55.028Z,64.87
2023-04-18T17:23:28.237Z,67.10
2023-04-18T17:26:01.892Z,61.23
2023-04-18T17:28:39.705Z,65.23
2023-04-18T17:31:12.862Z,60.20
2023-04-18T17:33:46.054Z,61.37
2023-04-18T17:36:19.476Z,63.47
2023-04-18T17:38:53.136Z,61.13
2023-04-18T17:41:26.581Z,61.17
2023-04-18T17:44:01.931Z,64.70
2023-04-18T17:46:35.547Z,68.70
2023-04-18T17:49:08.712Z,59.80
2023-04-18T17:51:41.864Z,56.97
2023-04-18T17:54:14.771Z,64.87
2023-04-18T17:56:48.747Z,59.00
2023-04-18T17:59:24.475Z,62.70
2023-04-18T18:01:58.195Z,62.80
2023-04-18T18:04:32.343Z,61.63
2023-04-18T18:07:05.375Z,62.73
2023-04-18T18:09:38.777Z,69.67
2023-04-18T18:12:12.864Z,69.10
2023-04-18T18:14:47.958Z,59.20
2023-04-18T18:17:21.995Z,64.33
2023-04-18T18:19:57.098Z,61.97
2023-04-18T18:22:30.412Z,62.83
2023-04-18T18:25:05.282Z,58.17
2023-04-18T18:27:38.568Z,60.73
2023-04-18T18:30:15.799Z,59.80
2023-04-18T18:32:49.153Z,61.33
2023-04-18T18:35:22.931Z,61.67
2023-04-18T18:37:56.506Z,62.13
2023-04-18T18:40:30.217Z,64.43
2023-04-18T18:43:03.383Z,65.03
2023-04-18T18:45:38.428Z,68.60
2023-04-18T18:48:11.812Z,61.03
2023-04-18T18:50:45.189Z,58.30
2023-04-18T18:53:19.555Z,62.70
2023-04-18T18:55:52.970Z,62.20
2023-04-18T18:58:26.443Z,60.83
2023-04-18T19:01:03.616Z,59.10
2023-04-18T19:03:36.649Z,58.67
2023-04-18T19:06:10.098Z,55.83
2023-04-18T19:08:43.599Z,60.07
2023-04-18T19:11:17.396Z,57.80
2023-04-18T19:13:51.230Z,54.47
2023-04-18T19:16:27.090Z,56.40
2023-04-18T19:19:00.771Z,55.43
2023-04-18T19:21:33.967Z,57.57
2023-04-18T19:24:06.886Z,60.93
2023-04-18T19:26:39.795Z,58.90
2023-04-18T19:29:15.881Z,61.37
2023-04-18T19:31:50.838Z,57.23
2023-04-18T19:34:24.007Z,59.97
2023-04-18T19:36:57.164Z,61.53
2023-04-18T19:39:30.606Z,58.63
2023-04-18T19:42:05.414Z,63.27
2023-04-18T19:44:39.303Z,60.53
2023-04-18T19:47:14.815Z,58.70
2023-04-18T19:49:47.919Z,56.47
2023-04-18T19:52:21.259Z,58.53
2023-04-18T19:54:55.513Z,61.90
2023-04-18T19:57:30.347Z,61.07
2023-04-18T20:00:03.763Z,67.73
2023-04-18T20:02:47.623Z,58.10
2023-04-18T20:05:21.973Z,65.53
2023-04-18T20:07:55.783Z,63.37
2023-04-18T20:10:29.231Z,63.37
2023-04-18T20:13:02.391Z,61.27
2023-04-18T20:15:36.027Z,62.93
2023-04-18T20:18:11.557Z,66.13
2023-04-18T20:20:45.151Z,69.20
2023-04-18T20:23:18.316Z,69.97
2023-04-18T20:25:51.930Z,68.47
2023-04-18T20:28:25.345Z,67.13
2023-04-18T20:30:59.034Z,67.90
2023-04-18T20:33:34.921Z,70.60
2023-04-18T20:36:08.704Z,72.80
2023-04-18T20:38:42.203Z,69.60
2023-04-18T20:41:19.632Z,69.40
2023-04-18T20:43:54.907Z,70.10
2023-04-18T20:46:28.427Z,70.23
2023-04-18T20:49:03.796Z,69.63
2023-04-18T20:51:38.799Z,72.87
2023-04-18T20:54:12.824Z,76.00
2023-04-18T20:56:46.636Z,73.67
2023-04-18T20:59:19.984Z,75.73
2023-04-18T21:01:53.406Z,91.00
2023-04-18T21:04:29.100Z,78.90
2023-04-18T21:07:02.457Z,68.97
2023-04-18T21:09:38.063Z,82.00
2023-04-18T21:12:11.822Z,83.50
2023-04-18T21:14:45.768Z,76.70
2023-04-18T21:17:19.377Z,78.00
2023-04-18T21:19:54.995Z,81.87
2023-04-18T21:22:27.930Z,82.27
2023-04-18T21:25:01.332Z,82.53
2023-04-18T21:27:35.628Z,79.90
2023-04-18T21:30:09.945Z,80.50
2023-04-18T21:32:43.990Z,84.10
2023-04-18T21:35:20.748Z,85.27
2023-04-18T21:37:55.579Z,79.03
2023-04-18T21:40:32.389Z,82.50
2023-04-18T21:43:06.313Z,85.67
2023-04-18T21:45:39.512Z,78.73
2023-04-18T21:48:14.451Z,80.00
2023-04-18T21:50:49.454Z,82.10
2023-04-18T21:53:23.187Z,79.97
2023-04-18T21:55:56.832Z,83.47
2023-04-18T21:58:30.751Z,85.63
2023-04-18T22:01:04.457Z,83.50
2023-04-18T22:03:38.218Z,81.43
2023-04-18T22:06:13.330Z,82.07
2023-04-18T22:08:46.344Z,86.23
2023-04-18T22:11:20.775Z,93.67
2023-04-18T22:13:55.334Z,80.20
2023-04-18T22:16:29.917Z,78.60
2023-04-18T22:19:03.769Z,87.30
2023-04-18T22:21:38.589Z,85.90
2023-04-18T22:24:13.039Z,83.77
2023-04-18T22:26:46.496Z,88.67
2023-04-18T22:29:19.766Z,89.07
2023-04-18T22:31:53.064Z,88.93
2023-04-18T22:34:26.503Z,83.67
2023-04-18T22:37:01.604Z,84.63
2023-04-18T22:39:34.537Z,87.77
2023-04-18T22:42:07.447Z,88.07
2023-04-18T22:44:40.988Z,87.57
2023-04-18T22:47:14.316Z,85.17
2023-04-18T22:49:47.850Z,82.43
2023-04-18T22:52:25.879Z,89.10
2023-04-18T22:54:59.164Z,85.90
2023-04-18T22:57:32.009Z,84.20
2023-04-18T23:00:06.617Z,83.33
2023-04-18T23:02:40.269Z,84.50
2023-04-18T23:05:16.662Z,89.03
2023-04-18T23:07:51.918Z,82.77
2023-04-18T23:10:25.315Z,88.00
2023-04-18T23:12:58.973Z,81.93
2023-04-18T23:18:05.973Z,85.47
2023-04-18T23:20:40.201Z,85.20
2023-04-18T23:23:15.806Z,82.20
2023-04-18T23:25:49.547Z,82.37
2023-04-18T23:28:22.633Z,77.27
2023-04-18T23:30:55.620Z,78.47
2023-04-18T23:33:28.748Z,76.35
2023-04-18T23:36:01.812Z,84.40
2023-04-18T23:38:38.740Z,76.18
2023-04-18T23:41:12.548Z,80.70
2023-04-18T23:43:46.063Z,84.32
2023-04-18T23:46:19.828Z,85.10
2023-04-18T23:48:53.415Z,81.22
2023-04-18T23:51:27.953Z,73.25
2023-04-18T23:54:03.443Z,70.70
2023-04-18T23:56:36.541Z,74.35
2023-04-18T23:59:09.390Z,80.80
